createdAt,value
2022-08-28T00:00:24.052Z,100088.03
2022-08-28T00:02:50.406Z,100097.34
2022-08-28T00:05:16.832Z,100095.78
2022-08-28T00:07:47.505Z,100098.44
2022-08-28T00:10:16.323Z,100085.56
2022-08-28T00:12:43.548Z,100097.16
2022-08-28T00:15:09.843Z,100090.44
2022-08-28T00:17:39.779Z,100096.28
2022-08-28T00:20:06.092Z,100097.72
2022-08-28T00:22:32.384Z,100101.09
2022-08-28T00:24:58.679Z,100100.06
2022-08-28T00:27:43.701Z,100109.13
2022-08-28T00:30:10.402Z,100104.56
2022-08-28T00:32:36.724Z,100107.75
2022-08-28T00:35:03.080Z,100117.81
2022-08-28T00:37:29.403Z,100110.38
2022-08-28T00:39:55.781Z,100111.38
2022-08-28T00:42:22.671Z,100109.66
2022-08-28T00:44:49.099Z,100111.00
2022-08-28T00:47:15.428Z,100105.13
2022-08-28T00:49:41.741Z,100105.63
2022-08-28T00:52:11.780Z,100104.34
2022-08-28T00:54:38.670Z,100102.34
2022-08-28T00:57:04.984Z,100102.31
2022-08-28T00:59:31.290Z,100106.75
2022-08-28T01:01:57.812Z,100102.72
2022-08-28T01:04:24.159Z,100113.03
2022-08-28T01:06:53.504Z,100099.75
2022-08-28T01:09:21.090Z,100102.81
2022-08-28T01:11:47.496Z,100110.31
2022-08-28T01:14:13.794Z,100103.16
2022-08-28T01:16:40.120Z,100108.28
2022-08-28T01:19:06.907Z,100108.75
2022-08-28T01:21:33.327Z,100104.91
2022-08-28T01:23:59.627Z,100102.00
2022-08-28T01:26:25.935Z,100105.75
2022-08-28T01:28:52.244Z,100114.09
2022-08-28T01:31:18.675Z,100117.00
2022-08-28T01:33:45.011Z,100113.56
2022-08-28T01:36:12.526Z,100126.03
2022-08-28T01:38:38.832Z,100118.38
2022-08-28T01:41:05.148Z,100114.09
2022-08-28T01:43:31.666Z,100120.78
2022-08-28T01:45:58.541Z,100123.78
2022-08-28T01:48:24.836Z,100124.31
2022-08-28T01:50:51.158Z,100126.81
2022-08-28T01:53:17.468Z,100136.72
2022-08-28T01:55:43.779Z,100124.50
2022-08-28T01:58:10.215Z,100128.88
2022-08-28T02:00:36.897Z,100128.41
2022-08-28T02:03:03.199Z,100137.22
2022-08-28T02:05:30.369Z,100136.59
2022-08-28T02:07:57.174Z,100144.56
2022-08-28T02:10:24.668Z,100133.84
2022-08-28T02:12:51.234Z,100139.25
2022-08-28T02:15:17.574Z,100137.06
2022-08-28T02:17:45.113Z,100143.34
2022-08-28T02:20:11.417Z,100147.94
2022-08-28T02:22:37.720Z,100147.47
2022-08-28T02:25:04.074Z,100155.28
2022-08-28T02:27:30.959Z,100152.25
2022-08-28T02:29:58.656Z,100158.00
2022-08-28T02:32:24.969Z,100151.53
2022-08-28T02:34:51.279Z,100146.94
2022-08-28T02:37:17.587Z,100153.09
2022-08-28T02:39:44.388Z,100148.16
2022-08-28T02:42:10.696Z,100146.44
2022-08-28T02:44:36.992Z,100154.28
2022-08-28T02:47:03.884Z,100156.13
2022-08-28T02:49:36.179Z,100154.97
2022-08-28T02:52:02.593Z,100152.56
2022-08-28T02:54:28.904Z,100148.16
2022-08-28T02:56:55.311Z,100151.88
2022-08-28T02:59:21.618Z,100148.81
2022-08-28T03:01:48.484Z,100151.22
2022-08-28T03:04:14.835Z,100147.28
2022-08-28T03:06:42.005Z,100153.63
2022-08-28T03:09:08.303Z,100147.66
2022-08-28T03:11:34.603Z,100150.19
2022-08-28T03:14:03.116Z,100149.34
2022-08-28T03:16:29.468Z,100151.53
2022-08-28T03:18:55.844Z,100157.00
2022-08-28T03:21:22.218Z,100143.72
2022-08-28T03:23:48.548Z,100148.66
2022-08-28T03:26:14.852Z,100150.88
2022-08-28T03:28:41.183Z,100154.59
2022-08-28T03:31:07.547Z,100142.72
2022-08-28T03:33:33.916Z,100144.41
2022-08-28T03:36:00.231Z,100149.84
2022-08-28T03:38:30.912Z,100146.81
2022-08-28T03:40:57.499Z,100144.25
2022-08-28T03:43:23.793Z,100143.75
2022-08-28T03:45:50.994Z,100149.84
2022-08-28T03:48:17.340Z,100149.88
2022-08-28T03:50:43.696Z,100149.78
2022-08-28T03:53:10.103Z,100144.41
2022-08-28T03:55:36.705Z,100158.34
2022-08-28T03:58:03.110Z,100153.75
2022-08-28T04:00:29.448Z,100156.31
2022-08-28T04:02:55.834Z,100165.47
2022-08-28T04:05:22.407Z,100163.63
2022-08-28T04:07:51.881Z,100172.81
2022-08-28T04:10:18.187Z,100173.59
2022-08-28T04:12:44.509Z,100161.69
2022-08-28T04:15:10.817Z,100169.19
2022-08-28T04:17:37.113Z,100177.97
2022-08-28T04:20:03.559Z,100177.09
2022-08-28T04:22:29.861Z,100179.00
2022-08-28T04:24:56.285Z,100188.28
2022-08-28T04:27:22.595Z,100185.00
2022-08-28T04:29:49.138Z,100185.63
2022-08-28T04:32:15.511Z,100181.25
2022-08-28T04:34:41.900Z,100186.81
2022-08-28T04:37:08.194Z,100184.66
2022-08-28T04:39:34.496Z,100185.91
2022-08-28T04:42:00.860Z,100196.34
2022-08-28T04:44:27.168Z,100201.50
2022-08-28T04:46:54.089Z,100193.25
2022-08-28T04:49:20.472Z,100200.06
2022-08-28T04:51:47.056Z,100196.16
2022-08-28T04:54:13.485Z,100192.94
2022-08-28T04:56:39.788Z,100198.03
2022-08-28T04:59:06.771Z,100200.91
2022-08-28T05:01:33.070Z,100204.84
2022-08-28T05:03:59.406Z,100205.81
2022-08-28T05:06:26.835Z,100204.13
2022-08-28T05:08:54.419Z,100212.69
2022-08-28T05:11:34.265Z,100214.38
2022-08-28T05:14:01.045Z,100206.69
2022-08-28T05:16:27.410Z,100217.22
2022-08-28T05:18:53.781Z,100219.72
2022-08-28T05:21:20.578Z,100212.28
2022-08-28T05:23:46.886Z,100212.78
2022-08-28T05:26:13.183Z,100218.97
2022-08-28T05:28:40.429Z,100220.81
2022-08-28T05:31:06.726Z,100230.91
2022-08-28T05:33:33.028Z,100225.53
2022-08-28T05:35:59.439Z,100239.06
2022-08-28T05:38:25.833Z,100245.69
2022-08-28T05:40:52.135Z,100251.94
2022-08-28T05:43:18.468Z,100250.13
2022-08-28T05:45:44.846Z,100264.28
2022-08-28T05:48:11.910Z,100264.56
2022-08-28T05:50:39.034Z,100270.50
2022-08-28T05:53:09.350Z,100274.88
2022-08-28T05:55:35.669Z,100278.34
2022-08-28T05:58:21.976Z,100284.28
2022-08-28T06:00:48.312Z,100286.75
2022-08-28T06:03:14.885Z,100283.16
2022-08-28T06:05:41.648Z,100278.47
2022-08-28T06:08:08.218Z,100289.94
2022-08-28T06:10:37.089Z,100286.28
2022-08-28T06:13:04.912Z,100290.41
2022-08-28T06:15:31.636Z,100292.00
2022-08-28T06:17:57.961Z,100294.66
2022-08-28T06:20:24.263Z,100295.63
2022-08-28T06:22:50.731Z,100305.81
2022-08-28T06:25:17.320Z,100296.41
2022-08-28T06:27:43.644Z,100299.41
2022-08-28T06:30:09.934Z,100296.19
2022-08-28T06:32:36.261Z,100298.84
2022-08-28T06:35:02.559Z,100304.09
2022-08-28T06:37:29.417Z,100297.09
2022-08-28T06:39:55.800Z,100298.56
2022-08-28T06:42:22.146Z,100297.28
2022-08-28T06:44:48.435Z,100306.53
2022-08-28T06:47:15.285Z,100308.06
2022-08-28T06:49:41.620Z,100300.38
2022-08-28T06:52:07.922Z,100309.22
2022-08-28T06:54:34.265Z,100316.34
2022-08-28T06:57:00.588Z,100320.19
2022-08-28T06:59:26.896Z,100309.72
2022-08-28T07:01:54.370Z,100322.84
2022-08-28T07:04:20.817Z,100317.81
2022-08-28T07:06:53.650Z,100329.75
2022-08-28T07:09:20.310Z,100326.09
2022-08-28T07:11:46.752Z,100323.88
2022-08-28T07:14:13.249Z,100331.44
2022-08-28T07:16:39.590Z,100321.41
2022-08-28T07:19:06.048Z,100327.06
2022-08-28T07:21:32.614Z,100330.22
2022-08-28T07:24:04.572Z,100328.88
2022-08-28T07:26:30.884Z,100334.94
2022-08-28T07:29:10.206Z,100336.66
2022-08-28T07:31:37.800Z,100334.09
2022-08-28T07:34:04.196Z,100348.38
2022-08-28T07:36:30.569Z,100344.34
2022-08-28T07:38:56.888Z,100344.25
2022-08-28T07:41:23.572Z,100345.81
2022-08-28T07:44:09.028Z,100342.44
2022-08-28T07:46:35.392Z,100346.88
2022-08-28T07:49:01.703Z,100351.97
2022-08-28T07:51:28.056Z,100353.00
2022-08-28T07:53:54.363Z,100354.22
2022-08-28T07:56:20.663Z,100356.09
2022-08-28T07:58:46.976Z,100355.84
2022-08-28T08:01:13.360Z,100362.84
2022-08-28T08:03:39.810Z,100369.91
2022-08-28T08:06:06.167Z,100366.88
2022-08-28T08:08:32.490Z,100366.47
2022-08-28T08:10:59.155Z,100361.09
2022-08-28T08:13:25.512Z,100363.38
2022-08-28T08:15:51.876Z,100363.56
2022-08-28T08:18:18.825Z,100361.78
2022-08-28T08:20:48.676Z,100358.97
2022-08-28T08:23:15.473Z,100363.91
2022-08-28T08:25:41.781Z,100357.13
2022-08-28T08:28:08.501Z,100368.34
2022-08-28T08:30:35.895Z,100357.13
2022-08-28T08:33:02.198Z,100361.91
2022-08-28T08:35:28.499Z,100357.06
2022-08-28T08:37:54.821Z,100366.63
2022-08-28T08:40:21.697Z,100369.31
2022-08-28T08:42:48.036Z,100361.59
2022-08-28T08:45:15.065Z,100376.75
2022-08-28T08:47:41.345Z,100368.41
2022-08-28T08:50:07.965Z,100368.41
2022-08-28T08:52:34.351Z,100370.78
2022-08-28T08:55:00.674Z,100368.56
2022-08-28T08:57:27.026Z,100375.19
2022-08-28T08:59:53.484Z,100374.38
2022-08-28T09:02:21.228Z,100378.13
2022-08-28T09:04:47.545Z,100383.56
2022-08-28T09:07:13.844Z,100377.91
2022-08-28T09:09:40.835Z,100379.28
2022-08-28T09:12:07.078Z,100375.56
2022-08-28T09:14:33.494Z,100383.69
2022-08-28T09:16:59.838Z,100380.19
2022-08-28T09:19:26.139Z,100386.44
2022-08-28T09:21:52.440Z,100387.44
2022-08-28T09:24:18.757Z,100388.50
2022-08-28T09:26:45.063Z,100384.41
2022-08-28T09:29:16.529Z,100393.25
2022-08-28T09:31:44.041Z,100392.22
2022-08-28T09:34:10.481Z,100399.56
2022-08-28T09:36:36.778Z,100396.16
2022-08-28T09:39:03.230Z,100397.38
2022-08-28T09:41:48.347Z,100383.38
2022-08-28T09:44:14.655Z,100386.44
2022-08-28T09:46:44.874Z,100381.81
2022-08-28T09:49:11.965Z,100388.97
2022-08-28T09:51:39.389Z,100386.38
2022-08-28T09:54:05.704Z,100388.28
2022-08-28T09:56:34.987Z,100393.06
2022-08-28T09:59:01.316Z,100393.81
2022-08-28T10:01:27.834Z,100401.56
2022-08-28T10:03:54.280Z,100397.97
2022-08-28T10:06:20.665Z,100393.13
2022-08-28T10:08:46.984Z,100401.16
2022-08-28T10:11:13.286Z,100394.25
2022-08-28T10:13:39.595Z,100403.75
2022-08-28T10:16:06.241Z,100405.41
2022-08-28T10:18:33.025Z,100399.94
2022-08-28T10:21:01.080Z,100408.84
2022-08-28T10:23:27.450Z,100401.81
2022-08-28T10:25:53.759Z,100399.28
2022-08-28T10:28:20.159Z,100403.84
2022-08-28T10:30:46.686Z,100405.69
2022-08-28T10:33:13.058Z,100419.16
2022-08-28T10:35:39.904Z,100404.97
2022-08-28T10:38:06.239Z,100412.88
2022-08-28T10:40:33.260Z,100411.00
2022-08-28T10:42:59.627Z,100412.97
2022-08-28T10:45:26.020Z,100410.31
2022-08-28T10:47:52.360Z,100413.22
2022-08-28T10:50:18.783Z,100405.63
2022-08-28T10:52:45.105Z,100403.22
2022-08-28T10:55:11.604Z,100401.91
2022-08-28T10:57:39.921Z,100409.09
2022-08-28T11:00:08.696Z,100410.16
2022-08-28T11:02:35.218Z,100398.00
2022-08-28T11:05:02.796Z,100401.66
2022-08-28T11:07:29.092Z,100396.69
2022-08-28T11:09:55.498Z,100404.63
2022-08-28T11:12:22.431Z,100400.69
2022-08-28T11:14:49.468Z,100403.81
2022-08-28T11:17:15.777Z,100402.91
2022-08-28T11:19:44.966Z,100406.44
2022-08-28T11:22:12.632Z,100408.69
2022-08-28T11:24:39.570Z,100402.53
2022-08-28T11:27:10.049Z,100403.69
2022-08-28T11:29:36.396Z,100402.94
2022-08-28T11:32:02.721Z,100401.63
2022-08-28T11:34:29.058Z,100416.19
2022-08-28T11:36:55.360Z,100410.84
2022-08-28T11:39:21.679Z,100415.72
2022-08-28T11:41:47.979Z,100413.56
2022-08-28T11:44:14.300Z,100424.09
2022-08-28T11:46:40.663Z,100416.72
2022-08-28T11:49:07.003Z,100427.91
2022-08-28T11:51:33.307Z,100420.59
2022-08-28T11:54:01.202Z,100435.34
2022-08-28T11:56:31.492Z,100425.13
2022-08-28T11:58:58.221Z,100428.63
2022-08-28T12:01:24.518Z,100432.31
2022-08-28T12:03:50.852Z,100427.56
2022-08-28T12:06:17.266Z,100439.28
2022-08-28T12:08:43.591Z,100431.94
2022-08-28T12:11:09.923Z,100432.44
2022-08-28T12:13:36.233Z,100433.16
2022-08-28T12:16:02.565Z,100427.69
2022-08-28T12:18:28.947Z,100424.09
2022-08-28T12:20:55.585Z,100423.91
2022-08-28T12:23:21.884Z,100434.44
2022-08-28T12:25:48.175Z,100435.50
2022-08-28T12:28:14.481Z,100428.69
2022-08-28T12:30:40.856Z,100436.97
2022-08-28T12:33:07.367Z,100421.91
2022-08-28T12:35:33.674Z,100421.22
2022-08-28T12:37:59.998Z,100414.94
2022-08-28T12:40:26.440Z,100425.31
2022-08-28T12:42:55.283Z,100421.44
2022-08-28T12:45:22.255Z,100418.75
2022-08-28T12:47:48.556Z,100413.34
2022-08-28T12:50:14.883Z,100415.47
2022-08-28T12:52:41.181Z,100411.47
2022-08-28T12:55:07.487Z,100410.41
2022-08-28T12:57:34.149Z,100406.97
2022-08-28T13:00:00.469Z,100408.75
2022-08-28T13:02:27.326Z,100410.53
2022-08-28T13:04:53.666Z,100405.31
2022-08-28T13:07:21.875Z,100403.25
2022-08-28T13:09:48.455Z,100416.06
2022-08-28T13:12:14.760Z,100403.81
2022-08-28T13:14:41.844Z,100396.84
2022-08-28T13:17:08.139Z,100408.94
2022-08-28T13:19:34.452Z,100399.81
2022-08-28T13:22:01.860Z,100410.81
2022-08-28T13:24:28.228Z,100408.34
2022-08-28T13:26:54.520Z,100401.34
2022-08-28T13:29:21.822Z,100405.34
2022-08-28T13:31:48.125Z,100405.22
2022-08-28T13:34:14.427Z,100397.78
2022-08-28T13:36:41.060Z,100392.56
2022-08-28T13:39:07.365Z,100394.28
2022-08-28T13:41:33.887Z,100394.56
2022-08-28T13:44:00.318Z,100397.22
2022-08-28T13:46:26.684Z,100392.78
2022-08-28T13:48:53.056Z,100396.00
2022-08-28T13:51:21.052Z,100393.75
2022-08-28T13:53:48.113Z,100387.59
2022-08-28T13:56:16.001Z,100390.50
2022-08-28T13:58:42.309Z,100388.69
2022-08-28T14:01:08.713Z,100401.28
2022-08-28T14:03:41.110Z,100393.06
2022-08-28T14:06:07.427Z,100394.50
2022-08-28T14:08:33.723Z,100397.78
2022-08-28T14:11:00.049Z,100389.66
2022-08-28T14:13:27.782Z,100390.84
2022-08-28T14:15:54.076Z,100389.91
2022-08-28T14:18:20.820Z,100385.75
2022-08-28T14:20:47.143Z,100395.53
2022-08-28T14:23:15.943Z,100392.59
2022-08-28T14:25:42.351Z,100392.44
2022-08-28T14:28:08.651Z,100379.84
2022-08-28T14:30:36.922Z,100381.56
2022-08-28T14:33:03.235Z,100388.47
2022-08-28T14:35:29.537Z,100381.03
2022-08-28T14:37:55.836Z,100374.75
2022-08-28T14:40:22.175Z,100379.63
2022-08-28T14:42:48.536Z,100380.72
2022-08-28T14:45:14.897Z,100377.94
2022-08-28T14:47:41.365Z,100377.44
2022-08-28T14:50:07.736Z,100379.16
2022-08-28T14:52:34.179Z,100376.03
2022-08-28T14:55:00.479Z,100374.94
2022-08-28T14:57:26.800Z,100379.13
2022-08-28T14:59:53.112Z,100378.94
2022-08-28T15:02:19.420Z,100377.09
2022-08-28T15:04:45.769Z,100389.19
2022-08-28T15:07:12.882Z,100380.97
2022-08-28T15:09:39.206Z,100382.69
2022-08-28T15:12:05.628Z,100384.03
2022-08-28T15:14:31.929Z,100377.41
2022-08-28T15:16:58.391Z,100375.75
2022-08-28T15:19:24.739Z,100377.28
2022-08-28T15:21:51.189Z,100381.34
2022-08-28T15:24:17.503Z,100371.28
2022-08-28T15:26:43.828Z,100369.81
2022-08-28T15:29:11.851Z,100386.50
2022-08-28T15:31:38.189Z,100384.31
2022-08-28T15:34:04.550Z,100377.16
2022-08-28T15:36:32.474Z,100368.16
2022-08-28T15:39:17.772Z,100379.19
2022-08-28T15:41:44.251Z,100374.31
2022-08-28T15:44:14.865Z,100380.53
2022-08-28T15:46:41.604Z,100375.25
2022-08-28T15:49:07.930Z,100385.34
2022-08-28T15:51:36.012Z,100381.72
2022-08-28T15:56:45.264Z,100380.00
2022-08-28T15:59:12.508Z,100365.72
2022-08-28T16:01:38.841Z,100382.88
2022-08-28T16:04:05.176Z,100374.28
2022-08-28T16:06:31.474Z,100385.56
2022-08-28T16:08:58.552Z,100380.06
2022-08-28T16:11:24.867Z,100383.03
2022-08-28T16:13:51.181Z,100387.88
2022-08-28T16:16:17.505Z,100380.00
2022-08-28T16:18:43.864Z,100391.81
2022-08-28T16:21:10.194Z,100390.78
2022-08-28T16:23:36.497Z,100386.78
2022-08-28T16:26:03.427Z,100383.50
2022-08-28T16:28:31.275Z,100387.00
2022-08-28T16:30:57.576Z,100379.19
2022-08-28T16:33:23.911Z,100385.59
2022-08-28T16:35:51.541Z,100385.06
2022-08-28T16:38:22.170Z,100390.31
2022-08-28T16:40:48.477Z,100382.50
2022-08-28T16:43:15.124Z,100392.19
2022-08-28T16:45:41.423Z,100394.56
2022-08-28T16:48:07.722Z,100389.31
2022-08-28T16:50:34.025Z,100391.47
2022-08-28T16:53:04.802Z,100379.38
2022-08-28T16:55:33.059Z,100387.56
2022-08-28T16:57:59.522Z,100387.22
2022-08-28T17:00:25.841Z,100383.66
2022-08-28T17:02:52.144Z,100381.84
2022-08-28T17:05:19.473Z,100380.44
2022-08-28T17:07:45.769Z,100377.56
2022-08-28T17:10:12.109Z,100386.25
2022-08-28T17:12:38.426Z,100384.03
2022-08-28T17:15:04.757Z,100384.09
2022-08-28T17:17:31.057Z,100378.22
2022-08-28T17:19:57.951Z,100380.97
2022-08-28T17:22:33.511Z,100375.78
2022-08-28T17:24:59.879Z,100375.22
2022-08-28T17:27:26.184Z,100382.00
2022-08-28T17:29:52.915Z,100381.53
2022-08-28T17:32:19.259Z,100382.59
2022-08-28T17:34:45.568Z,100389.09
2022-08-28T17:37:11.880Z,100392.94
2022-08-28T17:39:38.181Z,100394.34
2022-08-28T17:42:04.490Z,100391.16
2022-08-28T17:44:30.796Z,100393.41
2022-08-28T17:46:57.143Z,100397.09
2022-08-28T17:49:23.515Z,100400.22
2022-08-28T17:51:49.812Z,100400.00
2022-08-28T17:54:16.669Z,100402.06
2022-08-28T17:56:42.935Z,100400.34
2022-08-28T17:59:10.043Z,100408.81
2022-08-28T18:01:36.428Z,100406.75
2022-08-28T18:04:02.824Z,100410.88
2022-08-28T18:06:29.124Z,100418.94
2022-08-28T18:08:55.575Z,100418.81
2022-08-28T18:11:21.893Z,100425.03
2022-08-28T18:13:48.192Z,100429.22
2022-08-28T18:16:14.536Z,100430.38
2022-08-28T18:18:41.382Z,100433.97
2022-08-28T18:21:07.692Z,100434.66
2022-08-28T18:23:34.000Z,100438.44
2022-08-28T18:26:00.292Z,100442.75
2022-08-28T18:28:26.663Z,100445.31
2022-08-28T18:30:52.990Z,100444.34
2022-08-28T18:33:19.449Z,100452.03
2022-08-28T18:35:49.226Z,100453.41
2022-08-28T18:38:16.076Z,100450.75
2022-08-28T18:40:42.402Z,100455.69
2022-08-28T18:43:08.704Z,100464.81
2022-08-28T18:45:35.040Z,100461.56
2022-08-28T18:48:01.340Z,100468.75
2022-08-28T18:50:28.296Z,100464.84
2022-08-28T18:52:54.530Z,100474.56
2022-08-28T18:55:20.865Z,100470.47
2022-08-28T18:57:47.173Z,100475.63
2022-08-28T19:00:15.673Z,100472.38
2022-08-28T19:02:42.091Z,100465.75
2022-08-28T19:05:08.523Z,100471.91
2022-08-28T19:07:34.852Z,100472.91
2022-08-28T19:10:01.153Z,100478.06
2022-08-28T19:12:27.484Z,100469.72
2022-08-28T19:14:53.865Z,100473.34
2022-08-28T19:17:21.181Z,100469.59
2022-08-28T19:19:47.575Z,100473.69
2022-08-28T19:22:14.032Z,100470.63
2022-08-28T19:24:40.324Z,100475.09
2022-08-28T19:27:06.695Z,100479.66
2022-08-28T19:29:32.993Z,100476.44
2022-08-28T19:31:59.309Z,100483.59
2022-08-28T19:34:25.608Z,100487.69
2022-08-28T19:36:51.907Z,100495.19
2022-08-28T19:39:18.208Z,100492.28
2022-08-28T19:41:44.530Z,100491.75
2022-08-28T19:44:10.812Z,100496.53
2022-08-28T19:46:37.166Z,100495.50
2022-08-28T19:49:04.709Z,100504.88
2022-08-28T19:51:31.025Z,100503.34
2022-08-28T19:53:58.919Z,100496.69
2022-08-28T19:56:27.184Z,100499.59
2022-08-28T19:58:54.592Z,100493.25
2022-08-28T20:01:20.997Z,100501.41
2022-08-28T20:03:47.503Z,100507.38
2022-08-28T20:06:13.845Z,100499.38
2022-08-28T20:08:40.139Z,100511.97
2022-08-28T20:11:06.433Z,100513.13
2022-08-28T20:13:32.727Z,100509.75
2022-08-28T20:15:59.071Z,100518.22
2022-08-28T20:18:26.141Z,100511.88
2022-08-28T20:20:52.505Z,100515.06
2022-08-28T20:23:18.808Z,100515.06
2022-08-28T20:25:45.092Z,100516.66
2022-08-28T20:28:11.396Z,100525.06
2022-08-28T20:30:37.723Z,100522.84
2022-08-28T20:33:04.062Z,100523.47
2022-08-28T20:35:30.432Z,100520.06
2022-08-28T20:37:56.748Z,100526.53
2022-08-28T20:40:23.127Z,100531.63
2022-08-28T20:42:49.447Z,100536.88
2022-08-28T21:02:11.825Z,100540.59
2022-08-28T21:04:38.809Z,100535.16
2022-08-28T21:07:05.280Z,100535.78
2022-08-28T21:10:03.776Z,100546.19
2022-08-28T21:12:17.901Z,100554.47
2022-08-28T21:14:44.281Z,100550.78
2022-08-28T21:17:18.354Z,100546.66
2022-08-28T21:19:56.596Z,100544.28
2022-08-28T21:22:22.891Z,100547.69
2022-08-28T21:24:49.678Z,100552.59
2022-08-28T21:27:15.982Z,100555.44
2022-08-28T21:29:44.872Z,100555.22
2022-08-28T21:32:11.201Z,100561.44
2022-08-28T21:34:37.527Z,100560.59
2022-08-28T21:37:03.912Z,100558.56
2022-08-28T21:39:31.215Z,100568.53
2022-08-28T21:41:57.707Z,100562.06
2022-08-28T21:44:25.137Z,100557.03
2022-08-28T21:46:51.448Z,100566.03
2022-08-28T21:49:17.735Z,100568.91
2022-08-28T21:51:44.066Z,100573.47
2022-08-28T21:54:10.401Z,100574.09
2022-08-28T21:56:36.761Z,100565.78
2022-08-28T21:59:03.056Z,100571.06
2022-08-28T22:01:29.465Z,100571.66
2022-08-28T22:03:55.850Z,100576.28
2022-08-28T22:06:22.170Z,100568.72
2022-08-28T22:08:48.472Z,100566.81
2022-08-28T22:11:14.777Z,100579.50
2022-08-28T22:13:43.328Z,100575.22
2022-08-28T22:16:09.683Z,100574.38
2022-08-28T22:18:35.996Z,100578.59
2022-08-28T22:21:21.013Z,100583.97
2022-08-28T22:23:47.315Z,100582.59
2022-08-28T22:26:13.611Z,100589.44
2022-08-28T22:28:39.908Z,100591.47
2022-08-28T22:31:06.242Z,100583.47
2022-08-28T22:33:32.561Z,100589.19
2022-08-28T22:35:58.867Z,100588.22
2022-08-28T22:38:25.229Z,100591.72
2022-08-28T22:40:51.531Z,100587.00
2022-08-28T22:43:17.832Z,100587.31
2022-08-28T22:45:46.058Z,100598.44
2022-08-28T22:48:12.570Z,100597.91
2022-08-28T22:50:38.933Z,100601.88
2022-08-28T22:53:05.239Z,100602.03
2022-08-28T22:55:31.537Z,100598.59
2022-08-28T22:57:57.846Z,100596.03
2022-08-28T23:00:24.137Z,100596.47
2022-08-28T23:02:50.762Z,100599.91
2022-08-28T23:05:17.100Z,100603.06
2022-08-28T23:07:43.409Z,100601.97
2022-08-28T23:10:09.703Z,100601.06
2022-08-28T23:12:35.998Z,100600.09
2022-08-28T23:15:02.292Z,100597.66
2022-08-28T23:17:28.584Z,100595.16
2022-08-28T23:19:54.952Z,100601.25
2022-08-28T23:22:21.243Z,100602.56
2022-08-28T23:24:48.600Z,100602.03
2022-08-28T23:27:35.170Z,100599.41
2022-08-28T23:30:01.200Z,100604.31
2022-08-28T23:32:27.511Z,100603.59
2022-08-28T23:34:54.741Z,100605.16
2022-08-28T23:37:21.338Z,100600.56
2022-08-28T23:39:48.925Z,100605.47
2022-08-28T23:42:15.415Z,100609.31
2022-08-28T23:44:41.796Z,100623.16
2022-08-28T23:47:08.341Z,100617.75
2022-08-28T23:49:34.703Z,100622.88
2022-08-28T23:52:09.184Z,100617.75
2022-08-28T23:54:36.390Z,100626.88
2022-08-28T23:57:03.707Z,100627.19
2022-08-28T23:59:31.649Z,100623.72
